Racecast

Ben Wooddell

Cox Mill (NC) · 12 · SPCNC D7ACABARRUS · Compare head to head

Athlete rating 92.0 2014 XC season
Best race 103.2 TF
Races 52
Seasons 6 2013 — 2018

RankedNation #129708·NC #3852·NC D7A #801·SPC #142·Team #27 ?

Speed rating — all races

Cross Country

XC speed rating

2014 XC 90.3

Cox Mill (NC) · Grade 9

Date Meet Event Result Place Rating Difficulty PR/SR Flags
2014-10-04 McAlpine Creek Park 5000m 22:25 478th · 2nd on team 92.0 +0.002 ★PR ★CR SR CSR
2014-09-30 Vietnam Veteran's Park 5000m 22:43 26th · 3rd on team 92.6 +0.019 PR ★CR R SR CSR RSR
2014-09-16 Salisbury Community Park 5000m 23:56.8 108th · 13th on team 90.0 +0.042 ★CR CSR
2014-09-13 Weddington HS 5000m 24:21 175th · 6th on team 87.3 +0.014 ★CR CSR
2014-09-02 Frank Lisk Park 3218m 15:00 63rd · 9th on team 90.1 +0.066 ★PR ★CR R SR CSR RSR
2014-08-27 Ashbrook HS 5000m 23:38.4 110th · 4th on team 89.6 +0.026 PR ★CR R SR CSR RSR

Track & Field

TF speed rating

2018 TF

Cox Mill (NC) · Grade 12

Date Meet Event Result Place Rating Difficulty PR/SR Flags
2018-05-01 Cabarrus County Championships 100m 12.04 17th · 2nd on team -0.027
2018-05-01 Cabarrus County Championships 200m 24.34 16th · 3rd on team -0.027
2018-04-20 Friday Night Lights at Providence Senior High 100m 11.87 20th · 1st on team -0.029
2018-04-12 South Iredell Meet #2 200m 23.8 6th · 2nd on team -0.017 ★PR SR
2018-04-12 South Iredell Meet #2 100m 11.32 8th · 1st on team -0.017 ★PR SR
2018-03-27 East Rowan 3/27/2018 Meet 200m 25 8th · 2nd on team -0.025 SR
2018-03-27 East Rowan 3/27/2018 Meet 100m 12 4th · 1st on team -0.025
2018-03-15 Statesville Home Meet 200m 25.24 6th · 3rd on team -0.021 SR
2018-03-15 Statesville Home Meet 100m 11.94 5th · 1st on team -0.021 PR SR
2017-12-16 Meet results → Men's 55 Meters Preliminaries 7.24 88th · 13th on team ★PR SR
2017-12-09 Meet results → Men's 300 Meters 39.6 20th · 7th on team ★PR SR

2017 TF

Cox Mill (NC) · Grade 11

Date Meet Event Result Place Rating Difficulty PR/SR Flags
2017-05-03 SPC Conference Championships 200m 24.7 25th · 4th on team -0.025
2017-05-03 Southern Piedmont Conference Championship 200m 24.7 25th · 4th on team -0.025
2017-05-03 Southern Piedmont Conference Championship 400m 56.13 20th · 4th on team -0.025
2017-05-03 SPC Conference Championships 400m 56.13 20th · 4th on team -0.025
2017-04-27 South Rowan 200m 24.34 9th · 3rd on team -0.019 PR SR
2017-04-27 Con,NWC,HR,JMR at West Rowan 100m 12.24 17th · 1st on team -0.015
2017-04-12 Cabarrus County Championship 400m 56.14 13th · 3rd on team -0.024
2017-04-11 Cabarrus County Public Schools Championships 400m 56.14 13th · 3rd on team -0.024
2017-03-25 Hawk Invitational 200m 24.62 32nd · 3rd on team -0.029 PR SR
2017-03-25 Hawk Invitational 400m 55.83 32nd · 3rd on team -0.029 SR
2017-03-22 CM,NWC,JMR,HR at Wesr Rowan 100m 12.24 9th · 1st on team -0.015 PR SR
2017-03-07 Cabarrus Co Kickoff Time Trials 400m 56.04 13th · 3rd on team -0.024 SR

2016 TF

Cox Mill (NC) · Grade 10

Date Meet Event Result Place Rating Difficulty PR/SR Flags
2016-05-05 SPC Championships 400m 56.6 21st · 1st on team -0.025
2016-04-19 Cabarrus County Meet 400m 55.74 15th · 3rd on team -0.027 ★PR SR
2016-04-06 West Rowan #3 400m 56.41 7th · 2nd on team -0.017 PR SR
2016-03-17 East Rowan Meet #3 400m 57.29 6th · 3rd on team -0.025 PR SR
2016-03-15 MP Nonconference #2 400m 58.14 6th · 3rd on team -0.024 SR

2015 TF 103.2

Cox Mill (NC) · Grade 9

Date Meet Event Result Place Rating Difficulty PR/SR Flags
2015-04-22 SPC Championships 800m 2:28.09 24th · 1st on team 103.2 -0.025 ★PR ★R SR RSR
2015-04-22 SPC Championships 400m 1:00.04 23rd · 2nd on team -0.025
2015-04-09 East Rowan #4-SR, CHS, CM, CC 400m 1:01.26 6th · 1st on team -0.025
2015-04-09 East Rowan #4-SR, CHS, CM, CC 100m 12.87 14th · 3rd on team -0.025
2015-03-24 East Rowan #3- WR, CC, HR, CM 400m 1:00.64 7th · 3rd on team -0.025
2015-03-19 SRowan, CoxMill, CCab, Carson 400m 57.94 6th · 3rd on team -0.019 PR SR
2015-03-12 Con,CM, 400m 59.64 9th · 5th on team -0.015 PR SR
2015-03-12 Con,CM, 200m 27.64 15th · 5th on team -0.015 PR SR
2015-03-12 Con,CM, 100m 13.34 14th · 4th on team -0.015
2015-03-10 Mount Pleasant #3 400m 1:00.64 15th · 4th on team -0.024 PR SR
2015-03-10 Mount Pleasant #3 100m 12.84 19th · 4th on team -0.024 PR SR

2013 TF

Concord Rockets (NC) · Grade -

Date Meet Event Result Place Rating Difficulty PR/SR Flags
2013-06-15 Jim Law Invitational lj 4.09m -0.033
2013-06-08 Powerade State Games of NC lj 3.72m -0.033
2013-06-08 Powerade State Games of NC 400m 1:13.62 41st · 5th on team -0.033 PR SR
2013-06-08 Powerade State Games of NC 800m 2:50.54 28th · 3rd on team -0.033 PR SR
2013-06-01 HP Panthers Ken Roberts Challenge lj 4.24m -0.036
2013-06-01 HP Panthers Ken Roberts Challenge 800m 2:51.28 22nd · 4th on team -0.036 PR SR
2013-06-01 HP Panthers Ken Roberts Challenge 1500m 6:00.74 9th · 1st on team -0.036 ★PR SR